createdAt,value
2019-05-12T00:01:52.040Z,102301.24
2019-05-12T00:04:20.987Z,102305.58
2019-05-12T00:06:49.898Z,102314.16
2019-05-12T00:09:18.984Z,102318.28
2019-05-12T00:11:48.423Z,102316.86
2019-05-12T00:14:17.813Z,102311.80
2019-05-12T00:16:45.692Z,102314.97
2019-05-12T00:19:14.552Z,102319.88
2019-05-12T00:21:43.506Z,102319.01
2019-05-12T00:24:12.429Z,102325.49
2019-05-12T00:26:41.855Z,102322.58
2019-05-12T00:29:10.825Z,102321.86
2019-05-12T00:31:39.702Z,102321.60
2019-05-12T00:34:08.678Z,102324.00
2019-05-12T00:36:38.036Z,102326.04
2019-05-12T00:39:08.663Z,102327.86
2019-05-12T00:41:38.713Z,102338.63
2019-05-12T00:44:05.599Z,102333.17
2019-05-12T00:46:34.506Z,102341.25
2019-05-12T00:49:03.433Z,102332.91
2019-05-12T00:51:32.314Z,102329.73
2019-05-12T00:54:01.305Z,102337.48
2019-05-12T00:56:30.212Z,102343.80
2019-05-12T00:58:59.121Z,102349.18
2019-05-12T01:01:28.662Z,102351.17
2019-05-12T01:03:57.969Z,102352.80
2019-05-12T01:06:27.696Z,102354.86
2019-05-12T01:08:54.739Z,102354.49
2019-05-12T01:11:23.659Z,102364.45
2019-05-12T01:13:52.660Z,102365.53
2019-05-12T01:16:21.478Z,102369.06
2019-05-12T01:18:50.408Z,102369.06
2019-05-12T01:21:19.316Z,102366.20
2019-05-12T01:23:56.401Z,102374.94
2019-05-12T01:26:17.854Z,102373.72
2019-05-12T01:28:46.089Z,102379.56
2019-05-12T01:31:15.016Z,102377.27
2019-05-12T01:33:43.934Z,102387.47
2019-05-12T01:36:12.877Z,102387.70
2019-05-12T01:38:41.892Z,102391.86
2019-05-12T01:41:10.753Z,102387.08
2019-05-12T01:43:39.659Z,102395.02
2019-05-12T01:46:08.588Z,102401.55
2019-05-12T01:48:37.841Z,102400.60
2019-05-12T01:51:08.435Z,102400.66
2019-05-12T01:53:37.638Z,102412.05
2019-05-12T01:56:04.299Z,102415.09
2019-05-12T01:58:33.214Z,102419.23
2019-05-12T02:01:03.061Z,102421.86
2019-05-12T02:03:31.022Z,102432.82
2019-05-12T02:05:59.995Z,102434.14
2019-05-12T02:08:33.108Z,102440.84
2019-05-12T02:11:20.709Z,102437.23
2019-05-12T02:13:50.023Z,102447.09
2019-05-12T02:16:19.067Z,102443.70
2019-05-12T02:18:49.064Z,102448.32
2019-05-12T02:21:18.878Z,102452.91
2019-05-12T02:23:47.644Z,102450.91
2019-05-12T02:26:14.670Z,102458.65
2019-05-12T02:28:43.678Z,102465.94
2019-05-12T02:31:12.582Z,102463.42
2019-05-12T02:33:44.480Z,102464.72
2019-05-12T02:36:10.520Z,102476.42
2019-05-12T02:38:39.458Z,102477.98
2019-05-12T02:41:08.421Z,102480.77
2019-05-12T02:43:37.569Z,102478.58
2019-05-12T02:46:06.618Z,102485.81
2019-05-12T02:48:35.816Z,102485.91
2019-05-12T02:51:05.539Z,102495.03
2019-05-12T02:53:35.173Z,102501.73
2019-05-12T02:56:05.001Z,102511.13
2019-05-12T02:58:34.259Z,102511.88
2019-05-12T03:01:00.496Z,102512.13
2019-05-12T03:03:29.880Z,102513.98
2019-05-12T03:05:59.235Z,102516.09
2019-05-12T03:08:28.345Z,102523.06
2019-05-12T03:10:57.249Z,102536.42
2019-05-12T03:13:26.192Z,102534.05
2019-05-12T03:15:55.188Z,102532.41
2019-05-12T03:18:25.264Z,102542.61
2019-05-12T03:20:54.729Z,102552.52
2019-05-12T03:23:24.635Z,102552.23
2019-05-12T03:25:50.818Z,102552.70
2019-05-12T03:28:19.830Z,102548.84
2019-05-12T03:30:56.965Z,102550.45
2019-05-12T03:33:20.788Z,102559.53
2019-05-12T03:35:52.956Z,102556.22
2019-05-12T03:38:18.613Z,102558.84
2019-05-12T03:40:47.583Z,102559.78
2019-05-12T03:43:16.493Z,102561.54
2019-05-12T03:45:45.617Z,102561.34
2019-05-12T03:48:15.081Z,102567.23
2019-05-12T03:50:46.093Z,102572.74
2019-05-12T03:53:15.148Z,102576.36
2019-05-12T03:55:45.572Z,102578.33
2019-05-12T03:58:10.173Z,102587.66
2019-05-12T04:00:39.102Z,102588.64
2019-05-12T04:03:08.072Z,102598.12
2019-05-12T04:05:36.992Z,102601.38
2019-05-12T04:08:06.686Z,102605.43
2019-05-12T04:10:35.930Z,102607.30
2019-05-12T04:13:04.708Z,102607.57
2019-05-12T04:15:34.763Z,102611.02
2019-05-12T04:18:04.874Z,102616.29
2019-05-12T04:20:30.904Z,102625.03
2019-05-12T04:22:59.925Z,102619.44
2019-05-12T04:25:46.324Z,102632.56
2019-05-12T04:27:57.735Z,102635.47
2019-05-12T04:30:26.664Z,102638.30
2019-05-12T04:32:55.557Z,102642.12
2019-05-12T04:35:25.309Z,102647.72
2019-05-12T04:37:55.345Z,102651.28
2019-05-12T04:40:24.785Z,102657.23
2019-05-12T04:42:54.600Z,102664.23
2019-05-12T04:45:20.098Z,102662.05
2019-05-12T04:47:49.036Z,102667.42
2019-05-12T04:50:24.253Z,102672.95
2019-05-12T04:52:49.853Z,102663.48
2019-05-12T04:55:18.807Z,102675.85
2019-05-12T04:57:48.509Z,102669.72
2019-05-12T05:00:17.421Z,102675.34
2019-05-12T05:02:46.334Z,102680.61
2019-05-12T05:05:15.358Z,102680.38
2019-05-12T05:07:44.960Z,102693.03
2019-05-12T05:10:14.608Z,102691.83
2019-05-12T05:12:44.728Z,102700.50
2019-05-12T05:15:11.134Z,102691.97
2019-05-12T05:17:40.027Z,102691.97
2019-05-12T05:20:09.134Z,102691.56
2019-05-12T05:22:38.338Z,102695.83
2019-05-12T05:25:07.055Z,102695.60
2019-05-12T05:27:36.077Z,102696.88
2019-05-12T05:30:05.564Z,102688.67
2019-05-12T05:32:34.493Z,102701.80
2019-05-12T05:35:07.096Z,102704.77
2019-05-12T05:37:39.532Z,102716.47
2019-05-12T05:40:03.748Z,102711.66
2019-05-12T05:42:32.792Z,102717.89
2019-05-12T05:44:59.165Z,102721.43
2019-05-12T05:47:28.805Z,102722.61
2019-05-12T05:49:57.008Z,102724.56
2019-05-12T05:52:32.992Z,102728.77
2019-05-12T05:54:54.874Z,102732.06
2019-05-12T05:57:29.761Z,102736.97
2019-05-12T05:59:58.472Z,102736.20
2019-05-12T06:02:31.996Z,102737.84
2019-05-12T06:04:56.531Z,102739.84
2019-05-12T06:07:35.127Z,102751.38
2019-05-12T06:09:54.175Z,102741.05
2019-05-12T06:12:24.016Z,102730.58
2019-05-12T06:14:57.897Z,102738.92
2019-05-12T06:17:20.980Z,102747.58
2019-05-12T06:19:49.903Z,102759.98
2019-05-12T06:22:18.819Z,102754.58
2019-05-12T06:24:49.080Z,102754.31
2019-05-12T06:27:20.910Z,102761.70
2019-05-12T06:29:45.619Z,102772.27
2019-05-12T06:32:14.516Z,102774.70
2019-05-12T06:34:43.630Z,102783.03
2019-05-12T06:37:16.714Z,102784.11
2019-05-12T06:39:43.458Z,102781.78
2019-05-12T06:42:14.268Z,102787.39
2019-05-12T06:44:39.293Z,102783.64
2019-05-12T06:47:08.513Z,102786.81
2019-05-12T06:49:37.283Z,102794.88
2019-05-12T06:52:07.169Z,102801.55
2019-05-12T06:54:35.255Z,102795.42
2019-05-12T06:57:21.423Z,102812.09
2019-05-12T06:59:33.907Z,102813.31
2019-05-12T07:02:04.702Z,102821.62
2019-05-12T07:04:34.065Z,102830.88
2019-05-12T07:07:03.599Z,102829.60
2019-05-12T07:09:34.733Z,102830.00
2019-05-12T07:12:03.654Z,102833.81
2019-05-12T07:14:29.371Z,102834.36
2019-05-12T07:17:05.646Z,102832.88
2019-05-12T07:19:30.417Z,102826.91
2019-05-12T07:22:00.258Z,102826.11
2019-05-12T07:24:28.221Z,102821.62
2019-05-12T07:27:04.500Z,102817.73
2019-05-12T07:29:26.068Z,102816.32
2019-05-12T07:31:55.042Z,102812.66
2019-05-12T07:34:24.166Z,102811.42
2019-05-12T07:36:53.810Z,102814.60
2019-05-12T07:39:24.044Z,102813.42
2019-05-12T07:41:54.967Z,102812.59
2019-05-12T07:44:25.159Z,102809.95
2019-05-12T07:46:53.601Z,102803.97
2019-05-12T07:49:21.999Z,102811.86
2019-05-12T07:51:50.176Z,102802.84
2019-05-12T07:54:18.478Z,102811.78
2019-05-12T07:56:47.427Z,102805.62
2019-05-12T07:59:16.341Z,102812.45
2019-05-12T08:01:51.834Z,102821.47
2019-05-12T08:04:14.236Z,102825.97
2019-05-12T08:06:46.763Z,102822.78
2019-05-12T08:09:13.602Z,102813.14
2019-05-12T08:11:43.240Z,102816.63
2019-05-12T08:14:13.797Z,102824.16
2019-05-12T08:16:38.953Z,102825.48
2019-05-12T08:19:08.596Z,102823.63
2019-05-12T08:21:43.505Z,102832.12
2019-05-12T08:24:06.232Z,102831.40
2019-05-12T08:26:35.140Z,102833.27
2019-05-12T08:29:04.492Z,102831.14
2019-05-12T08:31:40.060Z,102827.45
2019-05-12T08:34:04.088Z,102828.74
2019-05-12T08:36:33.310Z,102835.69
2019-05-12T08:39:03.015Z,102837.41
2019-05-12T08:41:28.764Z,102840.23
2019-05-12T08:43:58.581Z,102846.73
2019-05-12T08:46:26.588Z,102840.77
2019-05-12T08:48:57.829Z,102833.58
2019-05-12T08:51:24.958Z,102836.36
2019-05-12T08:54:02.177Z,102842.46
2019-05-12T08:56:24.005Z,102847.09
2019-05-12T08:58:54.224Z,102850.80
2019-05-12T09:01:25.487Z,102861.97
2019-05-12T09:03:49.093Z,102874.12
2019-05-12T09:06:19.715Z,102886.94
2019-05-12T09:08:49.350Z,102884.23
2019-05-12T09:11:15.893Z,102893.13
2019-05-12T09:13:44.828Z,102897.66
2019-05-12T09:16:14.014Z,102903.05
2019-05-12T09:18:43.466Z,102899.52
2019-05-12T09:21:13.870Z,102904.21
2019-05-12T09:23:41.583Z,102897.50
2019-05-12T09:26:09.647Z,102897.39
2019-05-12T09:28:47.397Z,102896.66
2019-05-12T09:31:07.489Z,102901.11
2019-05-12T09:33:36.386Z,102904.25
2019-05-12T09:36:05.404Z,102901.77
2019-05-12T09:38:34.322Z,102904.25
2019-05-12T09:41:05.458Z,102903.25
2019-05-12T09:43:34.221Z,102908.98
2019-05-12T09:46:01.111Z,102900.59
2019-05-12T09:48:30.052Z,102901.56
2019-05-12T09:51:00.721Z,102906.44
2019-05-12T09:53:27.945Z,102912.67
2019-05-12T09:55:58.597Z,102907.61
2019-05-12T09:58:27.905Z,102917.94
2019-05-12T10:00:54.757Z,102916.70
2019-05-12T10:03:24.281Z,102922.05
2019-05-12T10:05:53.428Z,102921.42
2019-05-12T10:08:23.963Z,102926.48
2019-05-12T10:10:50.404Z,102919.55
2019-05-12T10:13:20.381Z,102925.00
2019-05-12T10:15:48.215Z,102921.42
2019-05-12T10:18:17.154Z,102924.94
2019-05-12T10:20:46.060Z,102922.91
2019-05-12T10:23:16.509Z,102931.69
2019-05-12T10:25:44.654Z,102920.69
2019-05-12T10:28:13.922Z,102932.31
2019-05-12T10:30:41.753Z,102930.33
2019-05-12T10:33:10.708Z,102924.22
2019-05-12T10:35:39.625Z,102925.80
2019-05-12T10:38:10.721Z,102927.20
2019-05-12T10:40:37.570Z,102929.61
2019-05-12T10:43:06.756Z,102926.28
2019-05-12T10:45:38.377Z,102934.28
2019-05-12T10:48:07.621Z,102931.27
2019-05-12T10:50:36.480Z,102934.78
2019-05-12T10:53:09.923Z,102926.67
2019-05-12T10:55:34.490Z,102936.98
2019-05-12T10:58:06.878Z,102929.78
2019-05-12T11:00:33.882Z,102931.19
2019-05-12T11:03:06.505Z,102927.91
2019-05-12T11:05:30.299Z,102923.66
2019-05-12T11:08:00.318Z,102928.70
2019-05-12T11:10:28.120Z,102936.52
2019-05-12T11:12:59.197Z,102928.41
2019-05-12T11:15:26.253Z,102923.62
2019-05-12T11:18:12.119Z,102917.20
2019-05-12T11:20:40.973Z,102928.05
2019-05-12T11:23:09.944Z,102940.20
2019-05-12T11:25:38.868Z,102946.92
2019-05-12T11:28:08.077Z,102952.50
2019-05-12T11:30:37.041Z,102949.31
2019-05-12T11:33:06.001Z,102946.90
2019-05-12T11:35:36.181Z,102952.97
2019-05-12T11:38:05.251Z,102944.92
2019-05-12T11:40:34.924Z,102940.61
2019-05-12T11:43:04.266Z,102947.48
2019-05-12T11:45:33.648Z,102944.53
2019-05-12T11:48:07.045Z,102942.08
2019-05-12T11:50:29.788Z,102938.83
2019-05-12T11:52:58.769Z,102946.55
2019-05-12T11:55:31.467Z,102947.42
2019-05-12T11:58:00.333Z,102952.56
2019-05-12T12:00:25.473Z,102945.76
2019-05-12T12:02:54.353Z,102944.19
2019-05-12T12:05:23.592Z,102951.70
2019-05-12T12:07:53.398Z,102943.12
2019-05-12T12:10:23.299Z,102949.91
2019-05-12T12:12:50.298Z,102945.56
2019-05-12T12:15:20.576Z,102955.53
2019-05-12T12:17:48.075Z,102951.25
2019-05-12T12:20:22.471Z,102950.33
2019-05-12T12:22:46.919Z,102955.78
2019-05-12T12:25:16.948Z,102957.59
2019-05-12T12:27:45.917Z,102950.24
2019-05-12T12:30:19.468Z,102951.52
2019-05-12T12:32:44.371Z,102951.05
2019-05-12T12:35:14.955Z,102953.20
2019-05-12T12:37:41.608Z,102966.53
2019-05-12T12:40:10.562Z,102959.56
2019-05-12T12:42:43.901Z,102949.59
2019-05-12T12:45:40.030Z,102939.16
2019-05-12T12:48:05.657Z,102935.84
2019-05-12T12:50:34.428Z,102939.56
2019-05-12T12:53:03.437Z,102934.08
2019-05-12T12:55:32.393Z,102936.64
2019-05-12T12:58:03.358Z,102939.69
2019-05-12T13:00:45.460Z,102946.55
2019-05-12T13:02:59.204Z,102950.00
2019-05-12T13:05:28.150Z,102955.47
2019-05-12T13:07:57.115Z,102956.09
2019-05-12T13:10:26.017Z,102959.83
2019-05-12T13:13:00.807Z,102962.28
2019-05-12T13:15:23.887Z,102962.70
2019-05-12T13:17:52.919Z,102963.14
2019-05-12T13:20:23.837Z,102961.17
2019-05-12T13:22:50.698Z,102960.48
2019-05-12T13:25:19.611Z,102956.44
2019-05-12T13:27:48.602Z,102973.64
2019-05-12T13:30:21.283Z,102974.98
2019-05-12T13:32:46.414Z,102974.08
2019-05-12T13:35:19.595Z,102970.23
2019-05-12T13:37:44.247Z,102967.86
2019-05-12T13:40:13.240Z,102963.80
2019-05-12T13:42:43.776Z,102968.00
2019-05-12T13:45:15.441Z,102968.31
2019-05-12T13:47:40.243Z,102966.79
2019-05-12T13:50:13.373Z,102966.70
2019-05-12T13:52:37.912Z,102969.27
2019-05-12T13:55:07.772Z,102972.44
2019-05-12T13:57:35.864Z,102968.39
2019-05-12T14:00:10.401Z,102971.88
2019-05-12T14:02:34.306Z,102978.27
2019-05-12T14:05:07.292Z,102977.45
2019-05-12T14:07:34.416Z,102981.34
2019-05-12T14:10:03.454Z,102983.13
2019-05-12T14:12:29.924Z,102980.50
2019-05-12T14:14:58.840Z,102983.33
2019-05-12T14:17:31.162Z,102989.25
2019-05-12T14:19:56.835Z,102993.55
2019-05-12T14:22:26.379Z,102998.78
2019-05-12T14:24:54.558Z,103001.89
2019-05-12T14:27:25.446Z,103004.97
2019-05-12T14:29:53.722Z,103004.91
2019-05-12T14:32:21.366Z,103013.04
2019-05-12T14:34:51.126Z,103007.73
2019-05-12T14:37:19.182Z,103014.55
2019-05-12T14:39:50.288Z,103025.36
2019-05-12T14:42:17.016Z,103020.76
2019-05-12T14:44:49.720Z,103025.84
2019-05-12T14:47:19.246Z,103014.80
2019-05-12T14:49:43.748Z,103012.66
2019-05-12T14:52:13.486Z,103011.13
2019-05-12T14:54:43.560Z,103006.03
2019-05-12T14:57:10.563Z,103011.30
2019-05-12T14:59:41.185Z,103020.17
2019-05-12T15:02:08.461Z,103016.56
2019-05-12T15:04:37.384Z,103024.88
2019-05-12T15:07:09.925Z,103032.73
2019-05-12T15:09:35.332Z,103038.23
2019-05-12T15:12:04.297Z,103031.34
2019-05-12T15:14:37.770Z,103034.08
2019-05-12T15:17:03.739Z,103036.29
2019-05-12T15:19:33.262Z,103040.48
2019-05-12T15:22:01.568Z,103042.47
2019-05-12T15:24:28.893Z,103046.30
2019-05-12T15:27:00.707Z,103044.40
2019-05-12T15:29:26.809Z,103044.09
2019-05-12T15:31:56.802Z,103046.33
2019-05-12T15:34:24.646Z,103038.21
2019-05-12T15:36:56.144Z,103037.77
2019-05-12T15:39:22.598Z,103033.86
2019-05-12T15:41:56.594Z,103036.84
2019-05-12T15:44:24.788Z,103046.17
2019-05-12T15:46:49.308Z,103048.13
2019-05-12T15:49:18.268Z,103055.95
2019-05-12T15:51:54.175Z,103053.05
2019-05-12T15:54:16.149Z,103055.72
2019-05-12T15:56:45.102Z,103051.40
2019-05-12T15:59:17.032Z,103055.27
2019-05-12T16:01:43.961Z,103063.33
2019-05-12T16:04:15.213Z,103046.38
2019-05-12T16:06:45.085Z,103050.70
2019-05-12T16:09:09.845Z,103060.17
2019-05-12T16:11:38.784Z,103060.08
2019-05-12T16:14:07.805Z,103060.31
2019-05-12T16:16:42.633Z,103067.09
2019-05-12T16:19:05.661Z,103067.33
2019-05-12T16:21:34.621Z,103077.72
2019-05-12T16:24:10.943Z,103077.41
2019-05-12T16:26:33.493Z,103084.95
2019-05-12T16:29:05.313Z,103087.59
2019-05-12T16:31:30.332Z,103088.58
2019-05-12T16:34:01.450Z,103081.74
2019-05-12T16:36:28.166Z,103084.70
2019-05-12T16:39:00.133Z,103086.29
2019-05-12T16:41:29.683Z,103086.55
2019-05-12T16:43:54.991Z,103086.71
2019-05-12T16:46:23.901Z,103088.91
2019-05-12T16:48:56.213Z,103094.80
2019-05-12T16:51:23.765Z,103094.80
2019-05-12T16:53:50.677Z,103092.52
2019-05-12T16:56:20.059Z,103091.05
2019-05-12T16:58:48.528Z,103090.00
2019-05-12T17:01:19.446Z,103096.22
2019-05-12T17:03:46.395Z,103101.04
2019-05-12T17:06:15.331Z,103105.06
2019-05-12T17:08:44.354Z,103109.62
2019-05-12T17:11:24.420Z,103115.12
2019-05-12T17:13:49.267Z,103114.29
2019-05-12T17:16:14.102Z,103124.16
2019-05-12T17:18:44.271Z,103126.20
2019-05-12T17:21:14.128Z,103124.55
2019-05-12T17:23:40.899Z,103125.56
2019-05-12T17:26:09.808Z,103123.58
2019-05-12T17:28:38.722Z,103128.33
2019-05-12T17:31:07.861Z,103126.86
2019-05-12T17:33:39.256Z,103134.17
2019-05-12T17:36:11.671Z,103134.94
2019-05-12T17:38:34.798Z,103136.62
2019-05-12T17:41:03.942Z,103144.71
2019-05-12T17:43:33.883Z,103144.88
2019-05-12T17:46:04.344Z,103151.22
2019-05-12T17:48:30.490Z,103155.80
2019-05-12T17:50:59.419Z,103156.22
2019-05-12T17:53:30.500Z,103147.38
2019-05-12T17:55:57.235Z,103155.14
2019-05-12T17:58:29.879Z,103153.63
2019-05-12T18:00:55.095Z,103163.66
2019-05-12T18:03:25.667Z,103164.32
2019-05-12T18:05:53.373Z,103170.92
2019-05-12T18:08:24.235Z,103173.10
2019-05-12T18:10:50.841Z,103173.69
2019-05-12T18:13:23.145Z,103175.59
2019-05-12T18:15:48.671Z,103179.09
2019-05-12T18:18:17.819Z,103179.14
2019-05-12T18:20:46.570Z,103175.98
2019-05-12T18:23:19.959Z,103180.21
2019-05-12T18:25:44.456Z,103187.45
2019-05-12T18:28:14.073Z,103184.95
2019-05-12T18:30:42.308Z,103193.91
2019-05-12T18:33:13.583Z,103197.83
2019-05-12T18:35:40.102Z,103195.31
2019-05-12T18:38:18.290Z,103198.34
2019-05-12T18:40:38.097Z,103204.12
2019-05-12T18:43:07.042Z,103205.95
2019-05-12T18:45:35.966Z,103204.61
2019-05-12T18:48:10.648Z,103204.43
2019-05-12T18:50:34.423Z,103216.13
2019-05-12T18:53:02.786Z,103216.92
2019-05-12T18:55:36.020Z,103217.59
2019-05-12T18:58:00.611Z,103224.76
2019-05-12T19:00:29.538Z,103227.87
2019-05-12T19:02:59.741Z,103232.83
2019-05-12T19:05:30.587Z,103237.55
2019-05-12T19:07:56.314Z,103239.75
2019-05-12T19:10:25.231Z,103245.88
2019-05-12T19:13:01.327Z,103248.84
2019-05-12T19:15:23.100Z,103248.05
2019-05-12T19:17:54.050Z,103249.31
2019-05-12T19:20:20.941Z,103249.56
2019-05-12T19:22:57.350Z,103250.34
2019-05-12T19:25:19.496Z,103255.31
2019-05-12T19:27:54.989Z,103261.83
2019-05-12T19:30:19.246Z,103266.64
2019-05-12T19:32:45.538Z,103274.92
2019-05-12T19:35:20.094Z,103280.48
2019-05-12T19:37:45.367Z,103280.53
2019-05-12T19:40:16.559Z,103284.14
2019-05-12T19:42:41.363Z,103288.21
2019-05-12T19:45:16.150Z,103291.44
2019-05-12T19:47:39.270Z,103297.30
2019-05-12T19:50:11.153Z,103294.08
2019-05-12T19:52:37.311Z,103292.52
2019-05-12T19:55:06.331Z,103296.94
2019-05-12T19:57:35.204Z,103297.66
2019-05-12T20:00:04.699Z,103303.42
2019-05-12T20:02:34.284Z,103310.05
2019-05-12T20:05:04.659Z,103310.92
2019-05-12T20:07:33.808Z,103316.21
2019-05-12T20:10:00.938Z,103315.89
2019-05-12T20:12:29.420Z,103318.06
2019-05-12T20:14:59.223Z,103320.60
2019-05-12T20:17:27.222Z,103317.34
2019-05-12T20:19:56.145Z,103320.28
2019-05-12T20:22:25.108Z,103319.48
2019-05-12T20:24:54.008Z,103323.73
2019-05-12T20:27:24.762Z,103331.28
2019-05-12T20:29:53.845Z,103325.50
2019-05-12T20:32:20.815Z,103331.61
2019-05-12T20:34:52.983Z,103334.79
2019-05-12T20:37:18.628Z,103329.67
2019-05-12T20:39:51.126Z,103330.92
2019-05-12T20:42:16.662Z,103329.08
2019-05-12T20:44:45.627Z,103335.30
2019-05-12T20:47:14.585Z,103335.57
2019-05-12T20:49:51.032Z,103335.65
2019-05-12T20:52:14.362Z,103338.73
2019-05-12T20:54:43.962Z,103349.67
2019-05-12T20:57:10.350Z,103346.39
2019-05-12T20:59:44.343Z,103343.14
2019-05-12T21:02:10.999Z,103348.41
2019-05-12T21:04:39.863Z,103360.02
2019-05-12T21:07:14.095Z,103356.66
2019-05-12T21:09:37.724Z,103360.85
2019-05-12T21:12:06.737Z,103355.92
2019-05-12T21:14:35.629Z,103355.98
2019-05-12T21:17:09.385Z,103355.40
2019-05-12T21:19:37.950Z,103357.83
2019-05-12T21:22:03.933Z,103363.46
2019-05-12T21:24:35.964Z,103355.83
2019-05-12T21:27:00.277Z,103354.06
2019-05-12T21:29:30.106Z,103362.02
2019-05-12T21:32:02.895Z,103363.78
2019-05-12T21:34:27.070Z,103360.19
2019-05-12T21:36:58.925Z,103361.47
2019-05-12T21:39:24.914Z,103360.31
2019-05-12T21:41:54.921Z,103360.08
2019-05-12T21:44:24.556Z,103375.09
2019-05-12T21:46:58.951Z,103372.63
2019-05-12T21:49:20.627Z,103373.95
2019-05-12T21:51:56.079Z,103370.69
2019-05-12T21:54:19.561Z,103378.70
2019-05-12T21:56:49.480Z,103377.27
2019-05-12T21:59:17.399Z,103379.14
2019-05-12T22:01:46.391Z,103373.33
2019-05-12T22:04:15.331Z,103381.44
2019-05-12T22:06:44.280Z,103377.62
2019-05-12T22:09:14.705Z,103388.55
2019-05-12T22:11:50.662Z,103384.39
2019-05-12T22:14:11.021Z,103387.97
2019-05-12T22:16:44.334Z,103383.09
2019-05-12T22:19:08.882Z,103392.27
2019-05-12T22:21:46.956Z,103386.20
2019-05-12T22:24:06.766Z,103382.70
2019-05-12T22:26:39.672Z,103385.15
2019-05-12T22:29:04.897Z,103389.66
2019-05-12T22:31:38.512Z,103397.42
2019-05-12T22:34:04.009Z,103404.02
2019-05-12T22:36:33.642Z,103404.48
2019-05-12T22:39:02.260Z,103400.58
2019-05-12T22:41:30.310Z,103402.19
2019-05-12T22:43:58.565Z,103403.44
2019-05-12T22:46:31.381Z,103401.03
2019-05-12T22:48:56.461Z,103404.05
2019-05-12T22:51:26.947Z,103410.45
2019-05-12T22:53:54.337Z,103416.45
2019-05-12T22:56:23.765Z,103411.24
2019-05-12T22:58:59.879Z,103414.45
2019-05-12T23:01:23.390Z,103413.16
2019-05-12T23:03:52.005Z,103408.61
2019-05-12T23:06:23.582Z,103420.41
2019-05-12T23:08:49.399Z,103421.88
2019-05-12T23:11:16.945Z,103421.62
2019-05-12T23:13:45.927Z,103424.13
2019-05-12T23:16:19.245Z,103423.47
2019-05-12T23:18:44.449Z,103420.39
2019-05-12T23:21:17.472Z,103426.69
2019-05-12T23:23:41.754Z,103431.01
2019-05-12T23:26:10.721Z,103429.70
2019-05-12T23:28:40.472Z,103432.67
2019-05-12T23:31:08.624Z,103433.45
2019-05-12T23:33:37.588Z,103433.35
2019-05-12T23:36:09.601Z,103432.69
2019-05-12T23:38:35.458Z,103437.97
2019-05-12T23:41:04.390Z,103440.61
2019-05-12T23:43:34.136Z,103432.70
2019-05-12T23:46:02.259Z,103432.38
2019-05-12T23:48:33.384Z,103432.51
2019-05-12T23:51:00.265Z,103436.67
2019-05-12T23:53:29.211Z,103435.07
2019-05-12T23:55:58.149Z,103434.39
2019-05-12T23:58:27.064Z,103443.02
